Hovedside
METAR-TAF:

METAR-TAF

Lufthavner :

El Dorado internasjonale lufthavn

Bogotá, Colombia

breddegrad: 04-43N, lengdegrad: 074-09W, høyde over havet: 2547 m

Gjeldene værobservasjon

Denne rapporten ble laget for 1 time og 5 minutter siden, klokken 03:00 UTC
Vind 5 kt fra Sørøst
Temperatur 15°C
Luftfuktighet 63%
Trykk 1028 hPa
Sikt 10 km eller mer
Brutte skyer i en høyde av 1800 ft

METAR: SKBO 200300Z 14005KT 9999 BKN018 15/08 A3035

Tid: 23:05 (04:05 UTC)

Varsel

Denne rapporten ble laget for 5 timer og 5 minutter siden, klokken 23:00 UTC
Varsel gyldig fra 20. klokken 00 UTC til 20. klokken 24 UTC
Vind 6 kt fra Nordøst
Sikt 10 km eller mer
Spredte skyer i en høyde av 1700 ft
Blir
fra 20. klokken 15 UTC til 20. klokken 17 UTC
Vind 12 kt fra Øst-sørøst

TAF: SKBO 192300Z 2000/2024 05006KT 9999 SCT017 BECMG 2015/2017 12012KT TX20/2019Z TN08/2011Z

Værobservasjoner og værvarsel for over 4000 flyplasser (METAR- og TAF-rapporter).

Tilgjengelige stasjoner er representert av de røde og gule prikkene på kartet.

Hold musepekeren over prikken for å se navnet på stasjonen.

Klikk så for å se værobservasjoner og -varsler.

For å forandre kartet kan du klikke på den grønne knappen med svart kryss for å zoome inn, på den grønne knappen med strek for å zoome ut, eller på de grønne pilene for å se tilstøtende kart.


METAR-TAF: